createdAt,value
2022-08-28T00:01:01.394Z,35.63
2022-08-28T00:03:28.731Z,35.70
2022-08-28T00:05:57.610Z,32.75
2022-08-28T00:08:26.868Z,36.30
2022-08-28T00:10:54.540Z,34.03
2022-08-28T00:13:23.337Z,40.17
2022-08-28T00:15:55.026Z,40.67
2022-08-28T00:18:22.558Z,37.08
2022-08-28T00:20:50.835Z,36.33
2022-08-28T00:23:18.416Z,37.10
2022-08-28T00:25:47.510Z,42.63
2022-08-28T00:28:24.375Z,47.15
2022-08-28T00:30:54.568Z,41.30
2022-08-28T00:33:24.137Z,35.47
2022-08-28T00:35:52.024Z,42.85
2022-08-28T00:38:20.396Z,38.85
2022-08-28T00:40:51.417Z,51.15
2022-08-28T00:43:31.766Z,46.50
2022-08-28T00:45:59.022Z,33.60
2022-08-28T00:48:26.184Z,46.00
2022-08-28T00:51:11.950Z,32.85
2022-08-28T00:53:39.197Z,40.30
2022-08-28T00:56:13.206Z,42.85
2022-08-28T00:58:43.556Z,46.80
2022-08-28T01:01:12.396Z,35.13
2022-08-28T01:03:39.957Z,43.55
2022-08-28T01:06:07.833Z,42.35
2022-08-28T01:08:36.747Z,46.85
2022-08-28T01:11:08.032Z,38.53
2022-08-28T01:13:38.121Z,44.08
2022-08-28T01:16:06.457Z,59.53
2022-08-28T01:18:34.891Z,39.42
2022-08-28T01:21:10.721Z,32.88
2022-08-28T01:23:53.393Z,40.42
2022-08-28T01:26:22.123Z,35.70
2022-08-28T01:28:49.254Z,47.55
2022-08-28T01:31:17.316Z,35.03
2022-08-28T01:33:45.737Z,28.90
2022-08-28T01:36:14.154Z,37.75
2022-08-28T01:38:43.510Z,37.85
2022-08-28T01:41:14.094Z,40.17
2022-08-28T01:43:42.912Z,37.50
2022-08-28T01:46:12.311Z,36.70
2022-08-28T01:48:42.593Z,33.92
2022-08-28T01:51:11.402Z,27.10
2022-08-28T01:53:39.195Z,33.90
2022-08-28T01:56:10.953Z,33.05
2022-08-28T01:58:40.747Z,35.25
2022-08-28T02:01:10.644Z,38.65
2022-08-28T02:03:38.348Z,40.78
2022-08-28T02:06:06.279Z,36.42
2022-08-28T02:08:33.437Z,36.83
2022-08-28T02:11:00.769Z,34.70
2022-08-28T02:13:28.345Z,32.85
2022-08-28T02:15:56.888Z,38.72
2022-08-28T02:18:24.739Z,39.67
2022-08-28T02:20:51.902Z,35.05
2022-08-28T02:23:19.518Z,32.33
2022-08-28T02:25:46.702Z,31.40
2022-08-28T02:28:16.983Z,27.98
2022-08-28T02:30:45.184Z,32.65
2022-08-28T02:33:13.745Z,34.70
2022-08-28T02:35:42.896Z,35.70
2022-08-28T02:38:10.415Z,38.63
2022-08-28T02:40:39.084Z,33.15
2022-08-28T02:43:06.238Z,28.30
2022-08-28T02:45:33.755Z,32.50
2022-08-28T02:48:02.011Z,31.38
2022-08-28T02:50:31.530Z,39.13
2022-08-28T02:52:58.870Z,36.85
2022-08-28T02:55:26.204Z,35.15
2022-08-28T02:57:54.728Z,36.00
2022-08-28T03:00:25.482Z,34.17
2022-08-28T03:02:53.797Z,30.15
2022-08-28T03:05:23.453Z,36.35
2022-08-28T03:07:53.472Z,35.67
2022-08-28T03:10:21.698Z,46.00
2022-08-28T03:12:49.384Z,32.55
2022-08-28T03:15:18.083Z,31.48
2022-08-28T03:17:45.638Z,32.35
2022-08-28T03:20:16.472Z,36.50
2022-08-28T03:23:02.519Z,44.08
2022-08-28T03:25:31.209Z,29.58
2022-08-28T03:27:58.421Z,32.55
2022-08-28T03:30:26.048Z,33.15
2022-08-28T03:32:53.957Z,32.30
2022-08-28T03:35:21.937Z,36.65
2022-08-28T03:37:49.237Z,39.30
2022-08-28T03:40:16.846Z,40.88
2022-08-28T03:42:53.646Z,32.78
2022-08-28T03:45:21.409Z,45.22
2022-08-28T03:47:48.769Z,34.95
2022-08-28T03:50:18.639Z,40.17
2022-08-28T03:52:47.518Z,29.85
2022-08-28T03:55:15.237Z,33.88
2022-08-28T03:57:42.356Z,34.00
2022-08-28T04:00:13.332Z,32.13
2022-08-28T04:02:40.718Z,27.35
2022-08-28T04:05:09.500Z,28.88
2022-08-28T04:07:36.730Z,31.70
2022-08-28T04:10:04.637Z,33.58
2022-08-28T04:12:35.230Z,41.45
2022-08-28T04:15:05.647Z,26.58
2022-08-28T04:17:37.653Z,46.25
2022-08-28T04:20:06.766Z,36.30
2022-08-28T04:22:33.962Z,27.02
2022-08-28T04:25:01.357Z,35.00
2022-08-28T04:27:28.590Z,53.28
2022-08-28T04:29:55.833Z,34.42
2022-08-28T04:32:23.749Z,35.88
2022-08-28T04:34:52.329Z,55.28
2022-08-28T04:37:19.518Z,46.42
2022-08-28T04:39:46.622Z,49.83
2022-08-28T04:42:14.409Z,39.63
2022-08-28T04:44:41.564Z,42.85
2022-08-28T04:47:08.686Z,38.38
2022-08-28T04:49:36.077Z,41.03
2022-08-28T04:52:05.345Z,52.33
2022-08-28T04:54:32.800Z,28.02
2022-08-28T04:57:00.328Z,41.75
2022-08-28T04:59:27.573Z,41.35
2022-08-28T05:01:54.933Z,35.15
2022-08-28T05:04:22.606Z,33.47
2022-08-28T05:06:49.729Z,40.38
2022-08-28T05:09:20.247Z,36.20
2022-08-28T05:11:48.575Z,35.60
2022-08-28T05:14:16.562Z,37.63
2022-08-28T05:16:47.786Z,57.40
2022-08-28T05:19:15.554Z,43.05
2022-08-28T05:21:42.741Z,45.92
2022-08-28T05:24:10.833Z,38.97
2022-08-28T05:26:40.262Z,37.28
2022-08-28T05:29:08.124Z,44.33
2022-08-28T05:31:35.448Z,32.30
2022-08-28T05:34:04.518Z,43.53
2022-08-28T05:36:35.790Z,42.20
2022-08-28T05:39:05.986Z,35.67
2022-08-28T05:41:34.341Z,46.30
2022-08-28T05:44:05.011Z,40.40
2022-08-28T05:46:32.593Z,28.88
2022-08-28T05:49:00.550Z,44.75
2022-08-28T05:51:28.103Z,53.72
2022-08-28T05:53:57.808Z,46.63
2022-08-28T05:56:29.876Z,45.72
2022-08-28T05:58:57.744Z,38.28
2022-08-28T06:01:28.727Z,45.20
2022-08-28T06:03:58.123Z,42.13
2022-08-28T06:06:27.049Z,60.85
2022-08-28T06:08:59.062Z,45.88
2022-08-28T06:11:27.345Z,46.83
2022-08-28T06:14:02.455Z,40.08
2022-08-28T06:16:32.527Z,46.72
2022-08-28T06:19:00.580Z,47.67
2022-08-28T06:21:28.274Z,44.83
2022-08-28T06:23:56.108Z,39.75
2022-08-28T06:26:23.790Z,43.45
2022-08-28T06:28:53.123Z,42.67
2022-08-28T06:31:24.723Z,37.40
2022-08-28T06:33:55.594Z,49.03
2022-08-28T06:36:23.446Z,51.38
2022-08-28T06:38:51.235Z,52.50
2022-08-28T06:41:19.310Z,37.80
2022-08-28T06:43:46.577Z,33.95
2022-08-28T06:46:13.805Z,44.35
2022-08-28T06:48:40.988Z,49.95
2022-08-28T06:51:11.297Z,49.03
2022-08-28T06:53:40.118Z,44.40
2022-08-28T06:56:09.818Z,41.00
2022-08-28T06:58:38.956Z,51.95
2022-08-28T07:01:10.406Z,49.88
2022-08-28T07:03:42.557Z,38.65
2022-08-28T07:06:14.508Z,46.53
2022-08-28T07:08:42.954Z,35.65
2022-08-28T07:11:13.311Z,49.17
2022-08-28T07:13:40.975Z,48.05
2022-08-28T07:16:09.408Z,42.55
2022-08-28T07:18:37.117Z,59.88
2022-08-28T07:21:07.067Z,51.55
2022-08-28T07:23:38.502Z,101.05
2022-08-28T07:26:07.744Z,56.08
2022-08-28T07:28:35.452Z,48.55
2022-08-28T07:31:05.094Z,78.35
2022-08-28T07:33:33.499Z,46.15
2022-08-28T07:36:01.613Z,53.03
2022-08-28T07:38:29.143Z,49.17
2022-08-28T07:40:57.730Z,45.75
2022-08-28T07:43:43.251Z,50.38
2022-08-28T07:46:14.218Z,37.33
2022-08-28T07:48:42.308Z,40.83
2022-08-28T07:51:10.387Z,48.15
2022-08-28T07:53:37.623Z,53.45
2022-08-28T07:56:07.338Z,36.90
2022-08-28T07:58:34.545Z,55.53
2022-08-28T08:01:01.832Z,55.90
2022-08-28T08:03:31.150Z,47.67
2022-08-28T08:06:02.253Z,63.20
2022-08-28T08:08:31.814Z,55.50
2022-08-28T08:11:00.826Z,70.65
2022-08-28T08:13:30.236Z,55.88
2022-08-28T08:16:01.956Z,63.30
2022-08-28T08:18:29.322Z,59.50
2022-08-28T08:20:56.638Z,61.72
2022-08-28T08:23:24.258Z,58.38
2022-08-28T08:25:56.153Z,58.20
2022-08-28T08:28:23.806Z,60.00
2022-08-28T08:31:03.453Z,54.45
2022-08-28T08:33:31.830Z,55.35
2022-08-28T08:35:59.048Z,61.47
2022-08-28T08:38:28.252Z,61.63
2022-08-28T08:40:55.669Z,46.85
2022-08-28T08:43:25.365Z,46.67
2022-08-28T08:45:54.075Z,47.50
2022-08-28T08:48:27.766Z,43.03
2022-08-28T08:50:57.587Z,45.50
2022-08-28T08:53:32.068Z,38.08
2022-08-28T08:56:00.212Z,45.38
2022-08-28T08:58:31.779Z,46.75
2022-08-28T09:01:07.697Z,29.00
2022-08-28T09:03:49.527Z,67.15
2022-08-28T09:06:27.373Z,25.58
2022-08-28T09:08:58.877Z,27.88
2022-08-28T09:11:34.425Z,32.55
2022-08-28T09:14:10.650Z,28.45
2022-08-28T09:16:42.682Z,22.63
2022-08-28T09:19:15.168Z,17.60
2022-08-28T09:21:44.832Z,11.60
2022-08-28T09:24:19.767Z,23.88
2022-08-28T09:26:52.666Z,35.17
2022-08-28T09:29:25.325Z,28.30
2022-08-28T09:31:54.105Z,62.25
2022-08-28T09:34:24.833Z,25.88
2022-08-28T09:36:52.923Z,20.30
2022-08-28T09:39:22.275Z,20.60
2022-08-28T09:42:12.374Z,19.90
2022-08-28T09:44:59.834Z,14.88
2022-08-28T09:47:46.263Z,17.55
2022-08-28T09:50:33.084Z,27.90
2022-08-28T09:53:15.617Z,25.00
2022-08-28T09:56:00.760Z,25.85
2022-08-28T09:58:34.102Z,20.13
2022-08-28T10:01:10.651Z,20.73
2022-08-28T10:03:46.714Z,17.58
2022-08-28T10:06:19.063Z,18.35
2022-08-28T10:08:56.505Z,31.73
2022-08-28T10:11:32.966Z,23.83
2022-08-28T10:14:15.053Z,27.17
2022-08-28T10:16:51.218Z,30.27
2022-08-28T10:19:36.195Z,30.83
2022-08-28T10:22:18.440Z,32.92
2022-08-28T10:24:58.056Z,31.25
2022-08-28T10:27:37.686Z,27.83
2022-08-28T10:30:13.317Z,27.83
2022-08-28T10:32:51.658Z,22.50
2022-08-28T10:35:23.000Z,39.47
2022-08-28T10:37:57.502Z,22.02
2022-08-28T10:40:28.544Z,26.35
2022-08-28T10:43:02.234Z,27.50
2022-08-28T10:45:32.124Z,24.77
2022-08-28T10:48:05.242Z,26.83
2022-08-28T10:50:42.173Z,23.52
2022-08-28T10:53:14.681Z,36.80
2022-08-28T10:55:52.014Z,30.13
2022-08-28T10:58:24.776Z,43.78
2022-08-28T11:00:55.337Z,32.80
2022-08-28T11:03:39.835Z,31.67
2022-08-28T11:06:14.287Z,22.90
2022-08-28T11:08:41.941Z,28.77
2022-08-28T11:11:15.033Z,31.33
2022-08-28T11:13:52.172Z,37.33
2022-08-28T11:16:23.031Z,47.65
2022-08-28T11:19:16.118Z,25.88
2022-08-28T11:21:49.156Z,23.70
2022-08-28T11:24:30.423Z,23.23
2022-08-28T11:27:06.139Z,25.95
2022-08-28T11:30:00.161Z,27.95
2022-08-28T11:32:37.278Z,30.27
2022-08-28T11:35:27.409Z,32.05
2022-08-28T11:37:57.649Z,34.15
2022-08-28T11:40:56.567Z,29.95
2022-08-28T11:43:38.389Z,34.90
2022-08-28T11:46:12.016Z,31.42
2022-08-28T11:51:35.351Z,32.63
2022-08-28T11:54:20.057Z,28.40
2022-08-28T11:57:01.214Z,32.17
2022-08-28T12:00:03.133Z,38.08
2022-08-28T12:02:54.333Z,32.05
2022-08-28T12:05:45.213Z,34.53
2022-08-28T12:08:33.880Z,27.25
2022-08-28T12:11:02.650Z,33.00
2022-08-28T12:13:47.274Z,34.78
2022-08-28T12:16:15.759Z,20.15
2022-08-28T12:19:04.165Z,29.70
2022-08-28T12:21:38.849Z,26.70
2022-08-28T12:24:16.178Z,23.75
2022-08-28T12:26:50.166Z,23.77
2022-08-28T12:32:28.642Z,29.63
2022-08-28T12:35:17.787Z,32.25
2022-08-28T12:37:58.798Z,28.05
2022-08-28T12:40:29.080Z,23.23
2022-08-28T12:43:00.331Z,39.75
2022-08-28T12:45:30.806Z,31.60
2022-08-28T12:48:02.911Z,27.90
2022-08-28T12:50:34.172Z,25.85
2022-08-28T12:53:04.376Z,21.65
2022-08-28T12:55:31.853Z,27.52
2022-08-28T12:58:00.890Z,30.33
2022-08-28T13:00:33.314Z,29.95
2022-08-28T13:03:02.042Z,36.03
2022-08-28T13:05:33.072Z,28.60
2022-08-28T13:08:03.408Z,31.55
2022-08-28T13:10:34.258Z,31.88
2022-08-28T13:13:06.493Z,27.55
2022-08-28T13:15:55.437Z,25.83
2022-08-28T13:18:45.655Z,30.98
2022-08-28T13:21:32.896Z,31.65
2022-08-28T13:24:23.638Z,23.80
2022-08-28T13:27:01.082Z,22.15
2022-08-28T13:29:30.237Z,30.02
2022-08-28T13:31:59.935Z,20.75
2022-08-28T13:34:29.280Z,17.25
2022-08-28T13:37:00.400Z,29.42
2022-08-28T13:39:29.751Z,29.65
2022-08-28T13:42:05.077Z,27.90
2022-08-28T13:44:35.480Z,26.40
2022-08-28T13:47:06.833Z,41.00
2022-08-28T13:49:34.714Z,37.20
2022-08-28T13:52:05.771Z,32.05
2022-08-28T13:54:34.599Z,35.58
2022-08-28T13:57:03.693Z,38.83
2022-08-28T13:59:33.312Z,43.67
2022-08-28T14:02:24.206Z,34.70
2022-08-28T14:04:51.854Z,35.75
2022-08-28T14:07:19.161Z,31.02
2022-08-28T14:09:46.669Z,34.97
2022-08-28T14:12:13.903Z,30.05
2022-08-28T14:14:43.164Z,29.25
2022-08-28T14:17:10.588Z,17.17
2022-08-28T14:19:38.120Z,20.67
2022-08-28T14:22:05.417Z,28.40
2022-08-28T14:24:32.745Z,34.05
2022-08-28T14:27:00.004Z,48.17
2022-08-28T14:29:27.195Z,25.17
2022-08-28T14:31:55.946Z,28.55
2022-08-28T14:34:23.457Z,21.30
2022-08-28T14:36:55.067Z,20.98
2022-08-28T14:39:25.127Z,26.42
2022-08-28T14:41:53.391Z,32.42
2022-08-28T14:44:21.781Z,23.35
2022-08-28T14:46:54.217Z,34.10
2022-08-28T14:49:26.806Z,25.83
2022-08-28T14:51:55.018Z,20.67
2022-08-28T14:54:24.522Z,34.97
2022-08-28T14:56:52.623Z,28.75
2022-08-28T14:59:24.260Z,23.52
2022-08-28T15:01:53.069Z,28.08
2022-08-28T15:04:23.548Z,24.35
2022-08-28T15:06:57.477Z,24.90
2022-08-28T15:11:52.030Z,22.50
2022-08-28T15:14:20.924Z,39.38
2022-08-28T15:16:49.614Z,23.00
2022-08-28T15:19:18.051Z,22.02
2022-08-28T15:21:47.547Z,43.08
2022-08-28T15:24:18.430Z,38.35
2022-08-28T15:26:46.895Z,26.20
2022-08-28T15:29:14.671Z,33.10
2022-08-28T15:31:44.475Z,23.75
2022-08-28T15:34:15.291Z,28.70
2022-08-28T15:36:54.720Z,29.88
2022-08-28T15:39:42.644Z,31.13
2022-08-28T15:42:11.430Z,26.27
2022-08-28T15:44:39.029Z,31.50
2022-08-28T15:47:07.437Z,27.60
2022-08-28T15:49:43.503Z,31.10
2022-08-28T15:52:14.450Z,31.42
2022-08-28T15:54:43.284Z,39.25
2022-08-28T15:57:10.485Z,38.38
2022-08-28T15:59:49.451Z,45.70
2022-08-28T16:02:18.642Z,30.00
2022-08-28T16:04:46.298Z,38.30
2022-08-28T16:07:13.431Z,73.47
2022-08-28T16:09:45.420Z,72.90
2022-08-28T16:12:12.658Z,71.07
2022-08-28T16:14:40.345Z,50.70
2022-08-28T16:17:10.694Z,38.72
2022-08-28T16:19:39.916Z,40.83
2022-08-28T16:22:07.542Z,45.13
2022-08-28T16:24:34.859Z,30.65
2022-08-28T16:27:04.453Z,32.03
2022-08-28T16:29:33.890Z,23.50
2022-08-28T16:32:01.095Z,29.08
2022-08-28T16:34:31.471Z,62.05
2022-08-28T16:36:59.302Z,41.83
2022-08-28T16:39:26.980Z,20.15
2022-08-28T16:41:54.167Z,18.63
2022-08-28T16:44:28.022Z,55.55
2022-08-28T16:46:55.831Z,38.25
2022-08-28T16:49:23.815Z,30.02
2022-08-28T16:51:51.596Z,57.38
2022-08-28T16:54:19.193Z,43.63
2022-08-28T16:56:46.547Z,39.72
2022-08-28T16:59:16.599Z,35.95
2022-08-28T17:01:45.672Z,36.88
2022-08-28T17:04:20.517Z,39.25
2022-08-28T17:06:47.650Z,40.95
2022-08-28T17:09:14.841Z,32.42
2022-08-28T17:11:42.160Z,28.17
2022-08-28T17:14:12.098Z,35.20
2022-08-28T17:16:39.775Z,33.47
2022-08-28T17:19:08.343Z,22.95
2022-08-28T17:21:54.361Z,27.90
2022-08-28T17:24:21.662Z,24.90
2022-08-28T17:26:48.822Z,39.42
2022-08-28T17:29:16.223Z,31.27
2022-08-28T17:31:43.991Z,22.75
2022-08-28T17:34:12.774Z,28.20
2022-08-28T17:36:42.175Z,30.88
2022-08-28T17:39:13.158Z,24.23
2022-08-28T17:41:41.405Z,36.72
2022-08-28T17:44:08.860Z,21.67
2022-08-28T17:46:37.911Z,17.33
2022-08-28T17:49:07.146Z,25.85
2022-08-28T17:51:43.554Z,21.52
2022-08-28T17:54:12.526Z,19.30
2022-08-28T17:56:40.317Z,23.00
2022-08-28T17:59:07.854Z,23.23
2022-08-28T18:01:36.252Z,27.75
2022-08-28T18:04:05.185Z,35.35
2022-08-28T18:06:32.623Z,23.35
2022-08-28T18:09:01.215Z,28.90
2022-08-28T18:11:28.578Z,26.05
2022-08-28T18:13:55.781Z,17.20
2022-08-28T18:16:26.476Z,29.75
2022-08-28T18:18:57.087Z,16.38
2022-08-28T18:21:24.868Z,26.88
2022-08-28T18:23:52.095Z,35.00
2022-08-28T18:26:20.685Z,18.83
2022-08-28T18:28:47.945Z,22.92
2022-08-28T18:31:15.365Z,26.33
2022-08-28T18:33:42.685Z,22.52
2022-08-28T18:36:11.316Z,23.00
2022-08-28T18:38:39.096Z,29.58
2022-08-28T18:41:07.257Z,23.35
2022-08-28T18:43:36.612Z,26.00
2022-08-28T18:46:05.396Z,22.70
2022-08-28T18:48:33.030Z,28.38
2022-08-28T18:51:00.291Z,25.02
2022-08-28T18:53:28.898Z,23.17
2022-08-28T18:55:56.238Z,28.42
2022-08-28T18:58:27.452Z,21.50
2022-08-28T19:00:56.065Z,27.17
2022-08-28T19:03:23.300Z,29.20
2022-08-28T19:05:51.928Z,28.92
2022-08-28T19:08:19.080Z,32.72
2022-08-28T19:10:46.764Z,26.92
2022-08-28T19:13:13.917Z,22.50
2022-08-28T19:15:41.471Z,20.42
2022-08-28T19:18:10.062Z,23.20
2022-08-28T19:20:37.774Z,27.02
2022-08-28T19:23:04.918Z,20.85
2022-08-28T19:25:32.403Z,18.88
2022-08-28T19:28:01.641Z,20.90
2022-08-28T19:30:32.936Z,21.80
2022-08-28T19:33:00.836Z,17.13
2022-08-28T19:35:29.553Z,21.00
2022-08-28T19:37:56.705Z,25.55
2022-08-28T19:40:23.969Z,14.30
2022-08-28T19:42:51.705Z,21.25
2022-08-28T19:45:20.135Z,25.00
2022-08-28T19:47:47.661Z,24.08
2022-08-28T19:50:15.593Z,21.50
2022-08-28T19:52:45.126Z,18.75
2022-08-28T19:55:16.581Z,19.35
2022-08-28T19:57:44.486Z,19.65
2022-08-28T20:00:15.211Z,27.55
2022-08-28T20:02:42.518Z,28.05
2022-08-28T20:05:10.704Z,24.55
2022-08-28T20:07:38.021Z,21.48
2022-08-28T20:10:07.498Z,20.80
2022-08-28T20:12:34.838Z,30.55
2022-08-28T20:15:04.256Z,20.63
2022-08-28T20:17:31.545Z,28.42
2022-08-28T20:20:02.311Z,21.15
2022-08-28T20:22:32.062Z,20.40
2022-08-28T20:24:59.457Z,21.42
2022-08-28T20:27:28.289Z,22.70
2022-08-28T20:29:56.185Z,24.20
2022-08-28T20:32:23.423Z,32.50
2022-08-28T20:34:50.569Z,18.48
2022-08-28T20:37:19.075Z,18.88
2022-08-28T20:39:47.360Z,14.52
2022-08-28T20:42:14.555Z,17.98
2022-08-28T20:44:43.144Z,20.70
2022-08-28T20:47:10.281Z,23.55
2022-08-28T20:49:39.427Z,23.35
2022-08-28T20:52:06.856Z,27.42
2022-08-28T20:54:37.346Z,17.92
2022-08-28T20:57:07.820Z,25.63
2022-08-28T20:59:40.062Z,21.40
2022-08-28T21:02:11.568Z,22.70
2022-08-28T21:04:40.865Z,18.67
2022-08-28T21:07:08.790Z,19.17
2022-08-28T21:09:53.739Z,19.40
2022-08-28T21:12:23.855Z,18.05
2022-08-28T21:14:53.011Z,22.30
2022-08-28T21:17:29.796Z,25.77
2022-08-28T21:20:00.141Z,17.38
2022-08-28T21:22:29.007Z,14.23
2022-08-28T21:24:56.154Z,21.70
2022-08-28T21:27:23.331Z,23.80
2022-08-28T21:29:50.724Z,15.10
2022-08-28T21:32:18.061Z,23.90
2022-08-28T21:34:46.638Z,15.38
2022-08-28T21:37:13.874Z,22.58
2022-08-28T21:39:41.060Z,21.60
2022-08-28T21:42:08.208Z,25.27
2022-08-28T21:44:35.398Z,15.93
2022-08-28T21:47:02.521Z,26.90
2022-08-28T21:49:29.739Z,15.27
2022-08-28T21:52:01.158Z,19.08
2022-08-28T21:54:28.459Z,27.50
2022-08-28T21:56:58.659Z,18.98
2022-08-28T21:59:28.519Z,21.70
2022-08-28T22:02:05.049Z,17.58
2022-08-28T22:04:32.290Z,27.05
2022-08-28T22:07:00.927Z,29.17
2022-08-28T22:09:28.984Z,23.42
2022-08-28T22:11:56.218Z,17.45
2022-08-28T22:14:25.188Z,21.20
2022-08-28T22:16:52.593Z,18.40
2022-08-28T22:19:20.010Z,21.80
2022-08-28T22:22:05.416Z,19.20
2022-08-28T22:24:34.293Z,26.60
2022-08-28T22:27:01.420Z,20.40
2022-08-28T22:29:36.257Z,29.40
2022-08-28T22:34:30.633Z,18.42
2022-08-28T22:36:57.833Z,20.48
2022-08-28T22:39:24.978Z,31.38
2022-08-28T22:41:53.469Z,17.15
2022-08-28T22:44:20.677Z,18.33
2022-08-28T22:46:47.923Z,19.85
2022-08-28T22:49:16.398Z,24.27
2022-08-28T22:51:43.590Z,21.23
2022-08-28T22:54:10.879Z,23.35
2022-08-28T22:56:38.057Z,22.88
2022-08-28T22:59:06.656Z,18.02
2022-08-28T23:01:35.188Z,25.63
2022-08-28T23:04:02.997Z,21.25
2022-08-28T23:06:30.612Z,14.90
2022-08-28T23:08:57.821Z,24.10
2022-08-28T23:11:25.197Z,27.52
2022-08-28T23:13:52.329Z,19.67
2022-08-28T23:16:24.025Z,19.00
2022-08-28T23:19:08.664Z,15.43
2022-08-28T23:21:43.558Z,25.40
2022-08-28T23:24:12.194Z,21.80
2022-08-28T23:26:39.451Z,23.40
2022-08-28T23:29:06.582Z,21.10
2022-08-28T23:31:35.742Z,21.77
2022-08-28T23:34:03.737Z,29.65
2022-08-28T23:36:32.542Z,25.00
2022-08-28T23:39:03.118Z,23.35
2022-08-28T23:41:30.681Z,28.13
2022-08-28T23:43:57.785Z,24.77
2022-08-28T23:46:25.673Z,25.23
2022-08-28T23:48:54.403Z,23.30
2022-08-28T23:51:22.128Z,24.45
2022-08-28T23:53:49.992Z,24.27
2022-08-28T23:56:17.313Z,21.73
2022-08-28T23:58:45.629Z,20.65
